sensor_id;sensor_type;location;lat;lon;timestamp;P1;durP1;ratioP1;P2;durP2;ratioP2
15665;SDS011;20725;51.196;3.510;2023-04-19T00:03:21;24.40;;;21.90;;
15665;SDS011;20725;51.196;3.510;2023-04-19T00:05:49;20.93;;;18.70;;
15665;SDS011;20725;51.196;3.510;2023-04-19T00:08:18;24.87;;;20.23;;
15665;SDS011;20725;51.196;3.510;2023-04-19T00:10:45;21.53;;;19.20;;
15665;SDS011;20725;51.196;3.510;2023-04-19T00:13:12;25.83;;;21.07;;
15665;SDS011;20725;51.196;3.510;2023-04-19T00:15:40;24.03;;;21.47;;
15665;SDS011;20725;51.196;3.510;2023-04-19T00:18:07;22.97;;;20.53;;
15665;SDS011;20725;51.196;3.510;2023-04-19T00:20:36;22.93;;;20.53;;
15665;SDS011;20725;51.196;3.510;2023-04-19T00:23:04;24.00;;;21.50;;
15665;SDS011;20725;51.196;3.510;2023-04-19T00:25:31;23.67;;;21.17;;
15665;SDS011;20725;51.196;3.510;2023-04-19T00:27:59;22.57;;;20.30;;
15665;SDS011;20725;51.196;3.510;2023-04-19T00:30:26;24.37;;;21.80;;
15665;SDS011;20725;51.196;3.510;2023-04-19T00:32:53;24.53;;;21.93;;
15665;SDS011;20725;51.196;3.510;2023-04-19T00:35:21;23.47;;;20.97;;
15665;SDS011;20725;51.196;3.510;2023-04-19T00:37:49;22.93;;;20.50;;
15665;SDS011;20725;51.196;3.510;2023-04-19T00:40:16;22.70;;;20.30;;
15665;SDS011;20725;51.196;3.510;2023-04-19T00:42:44;23.53;;;21.03;;
15665;SDS011;20725;51.196;3.510;2023-04-19T00:45:11;22.80;;;20.50;;
15665;SDS011;20725;51.196;3.510;2023-04-19T00:47:38;22.13;;;19.77;;
15665;SDS011;20725;51.196;3.510;2023-04-19T00:50:06;25.27;;;22.67;;
15665;SDS011;20725;51.196;3.510;2023-04-19T00:52:33;24.33;;;21.77;;
15665;SDS011;20725;51.196;3.510;2023-04-19T00:55:02;24.60;;;21.37;;
15665;SDS011;20725;51.196;3.510;2023-04-19T00:57:31;23.43;;;21.07;;
15665;SDS011;20725;51.196;3.510;2023-04-19T00:59:58;22.93;;;19.97;;
15665;SDS011;20725;51.196;3.510;2023-04-19T01:02:36;23.70;;;21.17;;
15665;SDS011;20725;51.196;3.510;2023-04-19T01:42:16;26.40;;;21.43;;
15665;SDS011;20725;51.196;3.510;2023-04-19T01:44:43;24.60;;;21.43;;
15665;SDS011;20725;51.196;3.510;2023-04-19T01:47:10;23.33;;;21.00;;
15665;SDS011;20725;51.196;3.510;2023-04-19T01:49:38;25.07;;;22.33;;
15665;SDS011;20725;51.196;3.510;2023-04-19T01:52:05;24.67;;;22.13;;
15665;SDS011;20725;51.196;3.510;2023-04-19T01:54:32;23.70;;;21.20;;
15665;SDS011;20725;51.196;3.510;2023-04-19T01:56:59;22.87;;;20.43;;
15665;SDS011;20725;51.196;3.510;2023-04-19T01:59:28;24.93;;;22.27;;
15665;SDS011;20725;51.196;3.510;2023-04-19T02:01:55;25.33;;;22.50;;
15665;SDS011;20725;51.196;3.510;2023-04-19T02:04:22;24.30;;;21.70;;
15665;SDS011;20725;51.196;3.510;2023-04-19T02:06:49;24.20;;;21.57;;
15665;SDS011;20725;51.196;3.510;2023-04-19T02:09:17;24.80;;;22.30;;
15665;SDS011;20725;51.196;3.510;2023-04-19T02:11:44;25.30;;;22.70;;
15665;SDS011;20725;51.196;3.510;2023-04-19T02:14:11;25.17;;;22.53;;
15665;SDS011;20725;51.196;3.510;2023-04-19T02:16:39;23.67;;;21.27;;
15665;SDS011;20725;51.196;3.510;2023-04-19T02:19:07;25.47;;;22.00;;
15665;SDS011;20725;51.196;3.510;2023-04-19T02:21:34;24.97;;;22.27;;
15665;SDS011;20725;51.196;3.510;2023-04-19T02:24:01;25.23;;;22.50;;
15665;SDS011;20725;51.196;3.510;2023-04-19T02:26:28;24.67;;;22.10;;
15665;SDS011;20725;51.196;3.510;2023-04-19T02:28:55;26.30;;;22.77;;
15665;SDS011;20725;51.196;3.510;2023-04-19T02:31:23;26.00;;;23.17;;
15665;SDS011;20725;51.196;3.510;2023-04-19T02:33:51;25.77;;;23.07;;
15665;SDS011;20725;51.196;3.510;2023-04-19T02:36:18;25.80;;;23.07;;
15665;SDS011;20725;51.196;3.510;2023-04-19T02:38:46;26.43;;;23.60;;
15665;SDS011;20725;51.196;3.510;2023-04-19T02:41:13;27.77;;;23.37;;
15665;SDS011;20725;51.196;3.510;2023-04-19T02:43:40;27.33;;;24.47;;
15665;SDS011;20725;51.196;3.510;2023-04-19T02:46:08;27.37;;;24.43;;
15665;SDS011;20725;51.196;3.510;2023-04-19T02:48:35;26.50;;;23.70;;
15665;SDS011;20725;51.196;3.510;2023-04-19T02:51:04;27.97;;;24.97;;
15665;SDS011;20725;51.196;3.510;2023-04-19T02:53:32;26.27;;;23.37;;
15665;SDS011;20725;51.196;3.510;2023-04-19T02:55:59;28.57;;;25.23;;
15665;SDS011;20725;51.196;3.510;2023-04-19T02:58:27;28.63;;;25.53;;
15665;SDS011;20725;51.196;3.510;2023-04-19T03:00:55;33.67;;;23.60;;
15665;SDS011;20725;51.196;3.510;2023-04-19T03:03:22;26.90;;;24.20;;
15665;SDS011;20725;51.196;3.510;2023-04-19T03:05:49;29.73;;;25.17;;
15665;SDS011;20725;51.196;3.510;2023-04-19T03:08:17;27.67;;;24.77;;
15665;SDS011;20725;51.196;3.510;2023-04-19T03:10:45;28.97;;;24.27;;
15665;SDS011;20725;51.196;3.510;2023-04-19T03:13:12;27.60;;;24.60;;
15665;SDS011;20725;51.196;3.510;2023-04-19T03:15:39;25.80;;;22.93;;
15665;SDS011;20725;51.196;3.510;2023-04-19T03:18:06;27.20;;;24.30;;
15665;SDS011;20725;51.196;3.510;2023-04-19T03:20:33;26.33;;;23.40;;
15665;SDS011;20725;51.196;3.510;2023-04-19T03:23:00;29.77;;;25.77;;
15665;SDS011;20725;51.196;3.510;2023-04-19T03:25:29;29.67;;;24.67;;
15665;SDS011;20725;51.196;3.510;2023-04-19T03:27:57;28.60;;;25.50;;
15665;SDS011;20725;51.196;3.510;2023-04-19T03:30:24;35.13;;;25.53;;
15665;SDS011;20725;51.196;3.510;2023-04-19T03:32:51;28.53;;;25.50;;
15665;SDS011;20725;51.196;3.510;2023-04-19T03:35:18;27.87;;;24.87;;
15665;SDS011;20725;51.196;3.510;2023-04-19T03:37:49;28.87;;;25.63;;
15665;SDS011;20725;51.196;3.510;2023-04-19T03:40:16;29.67;;;25.23;;
15665;SDS011;20725;51.196;3.510;2023-04-19T03:42:45;30.10;;;25.67;;
15665;SDS011;20725;51.196;3.510;2023-04-19T03:45:12;31.47;;;25.07;;
15665;SDS011;20725;51.196;3.510;2023-04-19T03:47:39;31.00;;;25.63;;
15665;SDS011;20725;51.196;3.510;2023-04-19T03:50:07;29.20;;;25.80;;
15665;SDS011;20725;51.196;3.510;2023-04-19T03:52:34;31.13;;;25.93;;
15665;SDS011;20725;51.196;3.510;2023-04-19T03:55:02;28.27;;;24.77;;
15665;SDS011;20725;51.196;3.510;2023-04-19T03:57:30;31.37;;;24.80;;
15665;SDS011;20725;51.196;3.510;2023-04-19T03:59:58;29.77;;;24.00;;
15665;SDS011;20725;51.196;3.510;2023-04-19T04:02:25;29.87;;;24.77;;
15665;SDS011;20725;51.196;3.510;2023-04-19T04:04:53;33.30;;;24.97;;
15665;SDS011;20725;51.196;3.510;2023-04-19T04:07:20;25.93;;;23.00;;
15665;SDS011;20725;51.196;3.510;2023-04-19T04:09:48;29.63;;;26.33;;
15665;SDS011;20725;51.196;3.510;2023-04-19T04:12:16;27.37;;;24.47;;
15665;SDS011;20725;51.196;3.510;2023-04-19T04:14:43;27.30;;;24.30;;
15665;SDS011;20725;51.196;3.510;2023-04-19T04:17:11;29.10;;;25.20;;
15665;SDS011;20725;51.196;3.510;2023-04-19T04:19:39;28.83;;;25.43;;
15665;SDS011;20725;51.196;3.510;2023-04-19T04:22:06;27.60;;;24.70;;
15665;SDS011;20725;51.196;3.510;2023-04-19T04:24:36;28.30;;;25.40;;
15665;SDS011;20725;51.196;3.510;2023-04-19T04:27:05;26.97;;;23.97;;
15665;SDS011;20725;51.196;3.510;2023-04-19T04:29:37;29.93;;;25.03;;
15665;SDS011;20725;51.196;3.510;2023-04-19T04:32:05;27.83;;;24.57;;
15665;SDS011;20725;51.196;3.510;2023-04-19T04:34:35;27.47;;;22.40;;
15665;SDS011;20725;51.196;3.510;2023-04-19T04:37:03;28.33;;;25.07;;
15665;SDS011;20725;51.196;3.510;2023-04-19T04:39:31;26.97;;;24.13;;
15665;SDS011;20725;51.196;3.510;2023-04-19T04:42:03;28.90;;;24.83;;
15665;SDS011;20725;51.196;3.510;2023-04-19T04:44:32;26.67;;;23.50;;
15665;SDS011;20725;51.196;3.510;2023-04-19T04:46:59;27.33;;;24.43;;
15665;SDS011;20725;51.196;3.510;2023-04-19T04:49:26;27.37;;;23.33;;
15665;SDS011;20725;51.196;3.510;2023-04-19T04:51:55;25.77;;;23.17;;
15665;SDS011;20725;51.196;3.510;2023-04-19T04:54:22;25.73;;;22.70;;
15665;SDS011;20725;51.196;3.510;2023-04-19T04:56:50;24.70;;;22.10;;
15665;SDS011;20725;51.196;3.510;2023-04-19T04:59:17;25.17;;;22.60;;
15665;SDS011;20725;51.196;3.510;2023-04-19T05:01:44;27.57;;;23.60;;
15665;SDS011;20725;51.196;3.510;2023-04-19T05:04:11;26.13;;;23.33;;
15665;SDS011;20725;51.196;3.510;2023-04-19T05:06:38;29.80;;;24.13;;
15665;SDS011;20725;51.196;3.510;2023-04-19T05:09:07;26.03;;;23.20;;
15665;SDS011;20725;51.196;3.510;2023-04-19T05:11:34;27.13;;;24.23;;
15665;SDS011;20725;51.196;3.510;2023-04-19T05:14:02;26.50;;;23.13;;
15665;SDS011;20725;51.196;3.510;2023-04-19T05:16:29;26.87;;;23.13;;
15665;SDS011;20725;51.196;3.510;2023-04-19T05:18:56;26.43;;;23.63;;
15665;SDS011;20725;51.196;3.510;2023-04-19T05:21:23;27.57;;;23.00;;
15665;SDS011;20725;51.196;3.510;2023-04-19T05:23:50;25.57;;;22.83;;
15665;SDS011;20725;51.196;3.510;2023-04-19T05:26:19;24.40;;;21.47;;
15665;SDS011;20725;51.196;3.510;2023-04-19T05:28:47;27.10;;;22.87;;
15665;SDS011;20725;51.196;3.510;2023-04-19T05:31:14;25.00;;;22.50;;
15665;SDS011;20725;51.196;3.510;2023-04-19T05:33:42;24.53;;;21.90;;
15665;SDS011;20725;51.196;3.510;2023-04-19T05:36:09;25.30;;;22.60;;
15665;SDS011;20725;51.196;3.510;2023-04-19T05:38:36;25.43;;;22.83;;
15665;SDS011;20725;51.196;3.510;2023-04-19T05:41:03;26.10;;;22.30;;
15665;SDS011;20725;51.196;3.510;2023-04-19T05:43:32;28.20;;;23.80;;
15665;SDS011;20725;51.196;3.510;2023-04-19T05:45:59;24.57;;;22.03;;
15665;SDS011;20725;51.196;3.510;2023-04-19T05:48:26;27.07;;;22.17;;
15665;SDS011;20725;51.196;3.510;2023-04-19T05:50:53;24.97;;;22.23;;
15665;SDS011;20725;51.196;3.510;2023-04-19T05:53:22;24.90;;;21.83;;
15665;SDS011;20725;51.196;3.510;2023-04-19T05:55:49;23.67;;;21.27;;
15665;SDS011;20725;51.196;3.510;2023-04-19T05:58:16;24.40;;;21.90;;
15665;SDS011;20725;51.196;3.510;2023-04-19T06:00:45;27.13;;;22.20;;
15665;SDS011;20725;51.196;3.510;2023-04-19T06:03:13;26.00;;;21.67;;
15665;SDS011;20725;51.196;3.510;2023-04-19T06:05:40;24.17;;;21.57;;
15665;SDS011;20725;51.196;3.510;2023-04-19T06:08:07;24.30;;;21.73;;
15665;SDS011;20725;51.196;3.510;2023-04-19T06:10:34;22.10;;;19.43;;
15665;SDS011;20725;51.196;3.510;2023-04-19T06:13:02;23.43;;;20.90;;
15665;SDS011;20725;51.196;3.510;2023-04-19T06:15:30;24.70;;;21.13;;
15665;SDS011;20725;51.196;3.510;2023-04-19T06:17:58;25.37;;;21.47;;
15665;SDS011;20725;51.196;3.510;2023-04-19T06:20:25;24.37;;;20.70;;
15665;SDS011;20725;51.196;3.510;2023-04-19T06:22:53;21.47;;;19.27;;
15665;SDS011;20725;51.196;3.510;2023-04-19T06:25:20;22.50;;;19.77;;
15665;SDS011;20725;51.196;3.510;2023-04-19T06:27:47;21.97;;;18.00;;
15665;SDS011;20725;51.196;3.510;2023-04-19T06:30:14;19.23;;;17.23;;
15665;SDS011;20725;51.196;3.510;2023-04-19T06:32:41;18.47;;;16.53;;
15665;SDS011;20725;51.196;3.510;2023-04-19T06:35:10;19.57;;;17.57;;
15665;SDS011;20725;51.196;3.510;2023-04-19T06:37:37;18.20;;;16.30;;
15665;SDS011;20725;51.196;3.510;2023-04-19T06:40:05;19.83;;;17.00;;
15665;SDS011;20725;51.196;3.510;2023-04-19T06:42:32;18.73;;;16.87;;
15665;SDS011;20725;51.196;3.510;2023-04-19T06:44:59;17.17;;;15.47;;
15665;SDS011;20725;51.196;3.510;2023-04-19T06:47:27;19.87;;;16.70;;
15665;SDS011;20725;51.196;3.510;2023-04-19T06:49:55;15.90;;;14.23;;
15665;SDS011;20725;51.196;3.510;2023-04-19T06:52:24;16.30;;;14.70;;
15665;SDS011;20725;51.196;3.510;2023-04-19T06:54:51;14.97;;;13.67;;
15665;SDS011;20725;51.196;3.510;2023-04-19T06:57:18;16.17;;;14.57;;
15665;SDS011;20725;51.196;3.510;2023-04-19T06:59:45;16.30;;;14.80;;
15665;SDS011;20725;51.196;3.510;2023-04-19T07:02:12;17.60;;;15.50;;
15665;SDS011;20725;51.196;3.510;2023-04-19T07:04:39;18.47;;;16.10;;
15665;SDS011;20725;51.196;3.510;2023-04-19T07:07:07;17.47;;;15.70;;
15665;SDS011;20725;51.196;3.510;2023-04-19T07:09:35;17.57;;;15.87;;
15665;SDS011;20725;51.196;3.510;2023-04-19T07:12:02;17.57;;;15.80;;
15665;SDS011;20725;51.196;3.510;2023-04-19T07:14:30;16.97;;;14.83;;
15665;SDS011;20725;51.196;3.510;2023-04-19T07:16:57;17.07;;;15.47;;
15665;SDS011;20725;51.196;3.510;2023-04-19T07:19:25;15.03;;;13.63;;
15665;SDS011;20725;51.196;3.510;2023-04-19T07:21:53;15.97;;;14.53;;
15665;SDS011;20725;51.196;3.510;2023-04-19T07:24:20;16.83;;;15.17;;
15665;SDS011;20725;51.196;3.510;2023-04-19T07:26:48;19.07;;;14.53;;
15665;SDS011;20725;51.196;3.510;2023-04-19T07:29:15;19.90;;;15.20;;
15665;SDS011;20725;51.196;3.510;2023-04-19T07:31:43;16.30;;;14.80;;
15665;SDS011;20725;51.196;3.510;2023-04-19T07:34:10;15.80;;;14.17;;
15665;SDS011;20725;51.196;3.510;2023-04-19T07:36:37;15.93;;;14.40;;
15665;SDS011;20725;51.196;3.510;2023-04-19T07:39:04;14.50;;;13.10;;
15665;SDS011;20725;51.196;3.510;2023-04-19T07:41:31;14.60;;;13.20;;
15665;SDS011;20725;51.196;3.510;2023-04-19T07:44:00;16.23;;;12.63;;
15665;SDS011;20725;51.196;3.510;2023-04-19T07:46:27;14.50;;;13.20;;
15665;SDS011;20725;51.196;3.510;2023-04-19T07:48:54;14.27;;;12.77;;
15665;SDS011;20725;51.196;3.510;2023-04-19T07:51:21;13.63;;;12.27;;
15665;SDS011;20725;51.196;3.510;2023-04-19T07:53:49;13.30;;;12.20;;
15665;SDS011;20725;51.196;3.510;2023-04-19T07:56:16;12.90;;;11.87;;
15665;SDS011;20725;51.196;3.510;2023-04-19T07:58:44;14.60;;;12.60;;
15665;SDS011;20725;51.196;3.510;2023-04-19T08:01:12;13.97;;;12.50;;
15665;SDS011;20725;51.196;3.510;2023-04-19T08:03:40;12.93;;;11.80;;
15665;SDS011;20725;51.196;3.510;2023-04-19T08:06:07;14.57;;;11.43;;
15665;SDS011;20725;51.196;3.510;2023-04-19T08:08:34;12.10;;;11.00;;
15665;SDS011;20725;51.196;3.510;2023-04-19T08:11:02;11.40;;;10.33;;
15665;SDS011;20725;51.196;3.510;2023-04-19T08:13:30;11.10;;;10.20;;
15665;SDS011;20725;51.196;3.510;2023-04-19T08:15:57;11.93;;;11.00;;
15665;SDS011;20725;51.196;3.510;2023-04-19T08:18:26;11.43;;;10.43;;
15665;SDS011;20725;51.196;3.510;2023-04-19T08:20:53;11.07;;;10.10;;
15665;SDS011;20725;51.196;3.510;2023-04-19T08:23:20;11.30;;;10.30;;
15665;SDS011;20725;51.196;3.510;2023-04-19T08:25:47;11.40;;;10.40;;
15665;SDS011;20725;51.196;3.510;2023-04-19T08:28:15;10.73;;;9.83;;
15665;SDS011;20725;51.196;3.510;2023-04-19T08:30:42;10.77;;;9.90;;
15665;SDS011;20725;51.196;3.510;2023-04-19T08:33:10;10.57;;;9.57;;
15665;SDS011;20725;51.196;3.510;2023-04-19T08:35:38;10.80;;;9.80;;
15665;SDS011;20725;51.196;3.510;2023-04-19T08:38:06;10.53;;;9.40;;
15665;SDS011;20725;51.196;3.510;2023-04-19T08:40:33;10.67;;;9.77;;
15665;SDS011;20725;51.196;3.510;2023-04-19T08:43:03;8.90;;;8.20;;
15665;SDS011;20725;51.196;3.510;2023-04-19T08:45:31;9.63;;;8.40;;
15665;SDS011;20725;51.196;3.510;2023-04-19T08:47:58;10.33;;;9.40;;
15665;SDS011;20725;51.196;3.510;2023-04-19T08:50:28;14.30;;;8.90;;
15665;SDS011;20725;51.196;3.510;2023-04-19T08:52:56;8.67;;;7.90;;
15665;SDS011;20725;51.196;3.510;2023-04-19T08:55:24;7.87;;;7.27;;
15665;SDS011;20725;51.196;3.510;2023-04-19T08:57:51;9.27;;;8.47;;
15665;SDS011;20725;51.196;3.510;2023-04-19T09:00:19;7.97;;;7.38;;
15665;SDS011;20725;51.196;3.510;2023-04-19T09:02:46;8.30;;;7.65;;
15665;SDS011;20725;51.196;3.510;2023-04-19T09:05:14;10.02;;;8.10;;
15665;SDS011;20725;51.196;3.510;2023-04-19T09:07:42;7.57;;;6.88;;
15665;SDS011;20725;51.196;3.510;2023-04-19T09:10:11;9.25;;;8.35;;
15665;SDS011;20725;51.196;3.510;2023-04-19T09:12:39;7.68;;;6.95;;
15665;SDS011;20725;51.196;3.510;2023-04-19T09:15:07;7.22;;;6.53;;
15665;SDS011;20725;51.196;3.510;2023-04-19T09:17:35;7.70;;;7.00;;
15665;SDS011;20725;51.196;3.510;2023-04-19T09:20:02;7.30;;;6.60;;
15665;SDS011;20725;51.196;3.510;2023-04-19T09:22:30;6.78;;;6.28;;
15665;SDS011;20725;51.196;3.510;2023-04-19T09:24:58;8.02;;;6.50;;
15665;SDS011;20725;51.196;3.510;2023-04-19T09:27:28;6.55;;;5.95;;
15665;SDS011;20725;51.196;3.510;2023-04-19T09:29:55;8.40;;;7.00;;
15665;SDS011;20725;51.196;3.510;2023-04-19T09:32:23;7.60;;;6.93;;
15665;SDS011;20725;51.196;3.510;2023-04-19T09:34:54;8.82;;;6.80;;
15665;SDS011;20725;51.196;3.510;2023-04-19T09:37:22;6.78;;;6.18;;
15665;SDS011;20725;51.196;3.510;2023-04-19T09:39:49;6.80;;;6.30;;
15665;SDS011;20725;51.196;3.510;2023-04-19T09:42:16;7.15;;;6.47;;
15665;SDS011;20725;51.196;3.510;2023-04-19T09:44:58;7.53;;;7.00;;
15665;SDS011;20725;51.196;3.510;2023-04-19T09:47:26;7.43;;;6.93;;
15665;SDS011;20725;51.196;3.510;2023-04-19T09:50:04;7.97;;;7.20;;
15665;SDS011;20725;51.196;3.510;2023-04-19T09:52:31;7.10;;;6.60;;
15665;SDS011;20725;51.196;3.510;2023-04-19T09:54:59;7.40;;;6.90;;
15665;SDS011;20725;51.196;3.510;2023-04-19T09:57:28;7.13;;;6.53;;
15665;SDS011;20725;51.196;3.510;2023-04-19T09:59:55;7.30;;;6.70;;
15665;SDS011;20725;51.196;3.510;2023-04-19T10:02:23;6.65;;;6.15;;
15665;SDS011;20725;51.196;3.510;2023-04-19T10:04:52;6.85;;;6.30;;
15665;SDS011;20725;51.196;3.510;2023-04-19T10:07:20;6.53;;;5.97;;
15665;SDS011;20725;51.196;3.510;2023-04-19T10:09:47;7.20;;;6.50;;
15665;SDS011;20725;51.196;3.510;2023-04-19T10:12:15;6.55;;;6.05;;
15665;SDS011;20725;51.196;3.510;2023-04-19T10:14:43;6.68;;;6.03;;
15665;SDS011;20725;51.196;3.510;2023-04-19T10:17:10;7.78;;;6.63;;
15665;SDS011;20725;51.196;3.510;2023-04-19T10:19:39;7.95;;;6.65;;
15665;SDS011;20725;51.196;3.510;2023-04-19T10:22:07;6.93;;;6.22;;
15665;SDS011;20725;51.196;3.510;2023-04-19T10:24:35;7.50;;;6.80;;
15665;SDS011;20725;51.196;3.510;2023-04-19T10:27:09;7.70;;;6.80;;
15665;SDS011;20725;51.196;3.510;2023-04-19T10:29:55;6.40;;;5.80;;
15665;SDS011;20725;51.196;3.510;2023-04-19T10:32:22;6.50;;;6.00;;
15665;SDS011;20725;51.196;3.510;2023-04-19T10:34:52;6.57;;;5.97;;
15665;SDS011;20725;51.196;3.510;2023-04-19T10:37:20;8.82;;;7.00;;
15665;SDS011;20725;51.196;3.510;2023-04-19T10:39:49;7.45;;;6.32;;
15665;SDS011;20725;51.196;3.510;2023-04-19T10:42:16;6.57;;;5.90;;
15665;SDS011;20725;51.196;3.510;2023-04-19T10:47:39;6.90;;;6.40;;
15665;SDS011;20725;51.196;3.510;2023-04-19T10:50:08;6.78;;;6.15;;
15665;SDS011;20725;51.196;3.510;2023-04-19T10:52:35;6.45;;;5.90;;
15665;SDS011;20725;51.196;3.510;2023-04-19T10:55:03;7.93;;;6.50;;
15665;SDS011;20725;51.196;3.510;2023-04-19T11:00:18;6.85;;;6.32;;
15665;SDS011;20725;51.196;3.510;2023-04-19T11:02:46;7.25;;;6.57;;
15665;SDS011;20725;51.196;3.510;2023-04-19T11:05:14;6.78;;;6.28;;
15665;SDS011;20725;51.196;3.510;2023-04-19T11:07:41;7.00;;;6.30;;
15665;SDS011;20725;51.196;3.510;2023-04-19T11:10:09;7.18;;;6.50;;
15665;SDS011;20725;51.196;3.510;2023-04-19T11:12:36;7.43;;;6.72;;
15665;SDS011;20725;51.196;3.510;2023-04-19T11:15:04;7.15;;;6.55;;
15665;SDS011;20725;51.196;3.510;2023-04-19T11:17:33;6.65;;;6.18;;
15665;SDS011;20725;51.196;3.510;2023-04-19T11:20:03;7.10;;;6.50;;
15665;SDS011;20725;51.196;3.510;2023-04-19T11:22:34;6.93;;;6.40;;
15665;SDS011;20725;51.196;3.510;2023-04-19T11:25:05;6.70;;;6.00;;
15665;SDS011;20725;51.196;3.510;2023-04-19T11:27:33;6.90;;;6.40;;
15665;SDS011;20725;51.196;3.510;2023-04-19T11:30:03;7.10;;;6.50;;
15665;SDS011;20725;51.196;3.510;2023-04-19T11:32:31;7.13;;;6.53;;
15665;SDS011;20725;51.196;3.510;2023-04-19T11:35:02;7.03;;;6.47;;
15665;SDS011;20725;51.196;3.510;2023-04-19T11:37:31;6.90;;;6.30;;
15665;SDS011;20725;51.196;3.510;2023-04-19T11:40:00;6.53;;;6.03;;
15665;SDS011;20725;51.196;3.510;2023-04-19T11:42:28;8.00;;;6.78;;
15665;SDS011;20725;51.196;3.510;2023-04-19T11:44:56;7.43;;;6.70;;
15665;SDS011;20725;51.196;3.510;2023-04-19T11:47:23;7.72;;;7.13;;
15665;SDS011;20725;51.196;3.510;2023-04-19T11:49:51;7.50;;;6.90;;
15665;SDS011;20725;51.196;3.510;2023-04-19T11:52:19;7.30;;;6.68;;
15665;SDS011;20725;51.196;3.510;2023-04-19T11:54:46;9.63;;;6.75;;
15665;SDS011;20725;51.196;3.510;2023-04-19T11:57:15;6.65;;;6.15;;
15665;SDS011;20725;51.196;3.510;2023-04-19T12:00:01;6.82;;;6.22;;
15665;SDS011;20725;51.196;3.510;2023-04-19T12:02:30;8.20;;;5.88;;
15665;SDS011;20725;51.196;3.510;2023-04-19T12:05:05;6.32;;;5.82;;
15665;SDS011;20725;51.196;3.510;2023-04-19T12:07:33;7.55;;;5.65;;
15665;SDS011;20725;51.196;3.510;2023-04-19T12:10:06;6.25;;;5.57;;
15665;SDS011;20725;51.196;3.510;2023-04-19T12:12:36;5.82;;;5.32;;
15665;SDS011;20725;51.196;3.510;2023-04-19T12:15:04;13.80;;;6.22;;
15665;SDS011;20725;51.196;3.510;2023-04-19T12:17:31;7.23;;;5.10;;
15665;SDS011;20725;51.196;3.510;2023-04-19T12:19:58;6.28;;;5.80;;
15665;SDS011;20725;51.196;3.510;2023-04-19T12:22:25;8.70;;;5.68;;
15665;SDS011;20725;51.196;3.510;2023-04-19T12:24:53;6.20;;;5.68;;
15665;SDS011;20725;51.196;3.510;2023-04-19T12:27:20;6.72;;;5.50;;
15665;SDS011;20725;51.196;3.510;2023-04-19T12:29:51;5.85;;;4.90;;
15665;SDS011;20725;51.196;3.510;2023-04-19T12:32:18;7.25;;;5.10;;
15665;SDS011;20725;51.196;3.510;2023-04-19T12:34:45;6.43;;;4.60;;
15665;SDS011;20725;51.196;3.510;2023-04-19T12:37:12;7.20;;;4.40;;
15665;SDS011;20725;51.196;3.510;2023-04-19T12:39:39;8.95;;;5.13;;
15665;SDS011;20725;51.196;3.510;2023-04-19T12:42:06;6.78;;;4.55;;
15665;SDS011;20725;51.196;3.510;2023-04-19T12:44:34;9.05;;;4.55;;
15665;SDS011;20725;51.196;3.510;2023-04-19T12:47:02;7.80;;;4.57;;
15665;SDS011;20725;51.196;3.510;2023-04-19T12:49:29;6.15;;;3.47;;
15665;SDS011;20725;51.196;3.510;2023-04-19T12:51:57;4.15;;;3.70;;
15665;SDS011;20725;51.196;3.510;2023-04-19T12:54:24;4.82;;;4.25;;
15665;SDS011;20725;51.196;3.510;2023-04-19T12:56:51;4.35;;;3.95;;
15665;SDS011;20725;51.196;3.510;2023-04-19T12:59:18;7.10;;;3.88;;
15665;SDS011;20725;51.196;3.510;2023-04-19T13:01:46;4.32;;;3.90;;
15665;SDS011;20725;51.196;3.510;2023-04-19T13:04:14;4.80;;;4.40;;
15665;SDS011;20725;51.196;3.510;2023-04-19T13:06:41;4.32;;;3.97;;
15665;SDS011;20725;51.196;3.510;2023-04-19T13:09:09;4.72;;;3.63;;
15665;SDS011;20725;51.196;3.510;2023-04-19T13:11:36;4.38;;;3.88;;
15665;SDS011;20725;51.196;3.510;2023-04-19T13:14:03;4.63;;;4.00;;
15665;SDS011;20725;51.196;3.510;2023-04-19T13:16:30;12.40;;;4.65;;
15665;SDS011;20725;51.196;3.510;2023-04-19T13:18:57;5.15;;;3.65;;
15665;SDS011;20725;51.196;3.510;2023-04-19T13:21:26;5.45;;;4.15;;
15665;SDS011;20725;51.196;3.510;2023-04-19T13:23:53;4.13;;;3.70;;
15665;SDS011;20725;51.196;3.510;2023-04-19T13:26:20;10.63;;;4.10;;
15665;SDS011;20725;51.196;3.510;2023-04-19T13:28:47;8.57;;;3.80;;
15665;SDS011;20725;51.196;3.510;2023-04-19T13:31:15;10.73;;;4.28;;
15665;SDS011;20725;51.196;3.510;2023-04-19T13:33:42;3.85;;;3.55;;
15665;SDS011;20725;51.196;3.510;2023-04-19T13:36:09;12.20;;;4.25;;
15665;SDS011;20725;51.196;3.510;2023-04-19T13:38:38;7.50;;;3.83;;
15665;SDS011;20725;51.196;3.510;2023-04-19T13:41:05;6.13;;;3.35;;
15665;SDS011;20725;51.196;3.510;2023-04-19T13:43:33;5.70;;;3.60;;
15665;SDS011;20725;51.196;3.510;2023-04-19T13:46:00;8.00;;;3.28;;
15665;SDS011;20725;51.196;3.510;2023-04-19T13:48:27;4.23;;;3.57;;
15665;SDS011;20725;51.196;3.510;2023-04-19T13:50:54;5.30;;;2.95;;
15665;SDS011;20725;51.196;3.510;2023-04-19T13:53:21;6.18;;;3.30;;
15665;SDS011;20725;51.196;3.510;2023-04-19T13:55:50;5.07;;;3.03;;
15665;SDS011;20725;51.196;3.510;2023-04-19T13:58:18;6.50;;;3.30;;
15665;SDS011;20725;51.196;3.510;2023-04-19T14:00:45;5.27;;;3.00;;
15665;SDS011;20725;51.196;3.510;2023-04-19T14:03:13;4.70;;;3.20;;
15665;SDS011;20725;51.196;3.510;2023-04-19T14:05:40;3.50;;;3.20;;
15665;SDS011;20725;51.196;3.510;2023-04-19T14:08:07;3.20;;;3.00;;
15665;SDS011;20725;51.196;3.510;2023-04-19T14:10:34;5.17;;;3.10;;
15665;SDS011;20725;51.196;3.510;2023-04-19T14:13:03;4.67;;;3.27;;
15665;SDS011;20725;51.196;3.510;2023-04-19T14:15:30;4.97;;;3.20;;
15665;SDS011;20725;51.196;3.510;2023-04-19T14:17:58;3.30;;;3.00;;
15665;SDS011;20725;51.196;3.510;2023-04-19T14:20:25;3.97;;;2.60;;
15665;SDS011;20725;51.196;3.510;2023-04-19T14:22:53;3.83;;;3.27;;
15665;SDS011;20725;51.196;3.510;2023-04-19T14:25:22;3.90;;;3.20;;
15665;SDS011;20725;51.196;3.510;2023-04-19T14:27:50;5.77;;;3.00;;
15665;SDS011;20725;51.196;3.510;2023-04-19T14:30:19;4.80;;;3.00;;
15665;SDS011;20725;51.196;3.510;2023-04-19T14:32:46;3.53;;;3.20;;
15665;SDS011;20725;51.196;3.510;2023-04-19T14:35:13;3.93;;;3.30;;
15665;SDS011;20725;51.196;3.510;2023-04-19T14:37:40;3.60;;;3.30;;
15665;SDS011;20725;51.196;3.510;2023-04-19T14:40:08;3.97;;;2.93;;
15665;SDS011;20725;51.196;3.510;2023-04-19T14:42:35;4.87;;;3.23;;
15665;SDS011;20725;51.196;3.510;2023-04-19T14:45:03;4.23;;;3.37;;
15665;SDS011;20725;51.196;3.510;2023-04-19T14:47:32;5.10;;;3.10;;
15665;SDS011;20725;51.196;3.510;2023-04-19T14:49:59;5.30;;;3.40;;
15665;SDS011;20725;51.196;3.510;2023-04-19T14:52:26;5.13;;;3.57;;
15665;SDS011;20725;51.196;3.510;2023-04-19T14:54:54;4.00;;;3.20;;
15665;SDS011;20725;51.196;3.510;2023-04-19T14:57:23;7.17;;;3.30;;
15665;SDS011;20725;51.196;3.510;2023-04-19T14:59:52;7.13;;;3.50;;
15665;SDS011;20725;51.196;3.510;2023-04-19T15:02:22;4.53;;;3.30;;
15665;SDS011;20725;51.196;3.510;2023-04-19T15:04:50;7.83;;;3.27;;
15665;SDS011;20725;51.196;3.510;2023-04-19T15:07:18;5.27;;;3.50;;
15665;SDS011;20725;51.196;3.510;2023-04-19T15:09:45;4.47;;;3.37;;
15665;SDS011;20725;51.196;3.510;2023-04-19T15:12:12;3.87;;;3.20;;
15665;SDS011;20725;51.196;3.510;2023-04-19T15:14:39;4.83;;;3.30;;
15665;SDS011;20725;51.196;3.510;2023-04-19T15:17:07;3.83;;;3.53;;
15665;SDS011;20725;51.196;3.510;2023-04-19T15:19:34;6.23;;;3.53;;
15665;SDS011;20725;51.196;3.510;2023-04-19T15:22:03;8.87;;;3.80;;